sensor_id;sensor_type;location;lat;lon;timestamp;pressure;altitude;pressure_sealevel;temperature;humidity
66689;BME280;53587;59.318;18.084;2023-09-19T00:00:33;100416.81;;;19.98;84.42
66689;BME280;53587;59.318;18.084;2023-09-19T00:02:58;100410.25;;;19.29;77.54
66689;BME280;53587;59.318;18.084;2023-09-19T00:05:24;100414.13;;;19.56;87.38
66689;BME280;53587;59.318;18.084;2023-09-19T00:07:53;100408.16;;;19.77;90.81
66689;BME280;53587;59.318;18.084;2023-09-19T00:10:20;100408.41;;;20.03;92.16
66689;BME280;53587;59.318;18.084;2023-09-19T00:12:46;100388.56;;;20.24;92.85
66689;BME280;53587;59.318;18.084;2023-09-19T00:15:12;100391.31;;;20.47;92.76
66689;BME280;53587;59.318;18.084;2023-09-19T00:17:37;100380.03;;;20.43;90.72
66689;BME280;53587;59.318;18.084;2023-09-19T00:20:03;100373.88;;;19.64;78.41
66689;BME280;53587;59.318;18.084;2023-09-19T00:22:32;100374.34;;;19.43;85.01
66689;BME280;53587;59.318;18.084;2023-09-19T00:24:57;100373.75;;;19.69;89.92
66689;BME280;53587;59.318;18.084;2023-09-19T00:27:23;100370.13;;;19.97;91.31
66689;BME280;53587;59.318;18.084;2023-09-19T00:29:48;100364.09;;;20.17;92.68
66689;BME280;53587;59.318;18.084;2023-09-19T00:32:13;100363.91;;;20.36;93.38
66689;BME280;53587;59.318;18.084;2023-09-19T00:34:38;100353.06;;;20.49;91.68
66689;BME280;53587;59.318;18.084;2023-09-19T00:37:03;100347.91;;;20.33;88.04
66689;BME280;53587;59.318;18.084;2023-09-19T00:39:29;100341.25;;;19.38;78.13
66689;BME280;53587;59.318;18.084;2023-09-19T00:41:56;100339.84;;;19.27;84.14
66689;BME280;53587;59.318;18.084;2023-09-19T00:44:21;100339.81;;;19.55;89.66
66689;BME280;53587;59.318;18.084;2023-09-19T00:46:48;100343.63;;;19.82;91.78
66689;BME280;53587;59.318;18.084;2023-09-19T00:49:15;100336.81;;;20.02;92.93
66689;BME280;53587;59.318;18.084;2023-09-19T00:51:41;100333.84;;;20.21;91.93
66689;BME280;53587;59.318;18.084;2023-09-19T00:54:11;100329.06;;;20.35;92.54
66689;BME280;53587;59.318;18.084;2023-09-19T00:56:37;100325.41;;;20.49;92.38
66689;BME280;53587;59.318;18.084;2023-09-19T00:59:06;100317.59;;;20.51;91.37
66689;BME280;53587;59.318;18.084;2023-09-19T01:01:31;100308.59;;;19.91;82.64
66689;BME280;53587;59.318;18.084;2023-09-19T01:03:57;100303.56;;;19.06;78.87
66689;BME280;53587;59.318;18.084;2023-09-19T01:06:23;100317.44;;;19.42;87.57
66689;BME280;53587;59.318;18.084;2023-09-19T01:08:48;100305.78;;;19.68;90.63
66689;BME280;53587;59.318;18.084;2023-09-19T01:11:21;100297.53;;;19.91;92.52
66689;BME280;53587;59.318;18.084;2023-09-19T01:13:57;100286.94;;;20.16;93.75
66689;BME280;53587;59.318;18.084;2023-09-19T01:19:01;100262.72;;;20.53;92.96
66689;BME280;53587;59.318;18.084;2023-09-19T01:29:44;100243.59;;;19.79;91.13
66689;BME280;53587;59.318;18.084;2023-09-19T01:32:13;100242.47;;;20.03;92.40
66689;BME280;53587;59.318;18.084;2023-09-19T01:34:46;100238.16;;;20.20;92.17
66689;BME280;53587;59.318;18.084;2023-09-19T01:37:15;100222.47;;;20.38;92.89
66689;BME280;53587;59.318;18.084;2023-09-19T01:39:44;100222.66;;;20.50;92.01
66689;BME280;53587;59.318;18.084;2023-09-19T01:47:13;100206.28;;;19.45;85.95
66689;BME280;53587;59.318;18.084;2023-09-19T01:49:44;100201.25;;;19.70;90.11
66689;BME280;53587;59.318;18.084;2023-09-19T01:52:15;100191.84;;;19.94;91.99
66689;BME280;53587;59.318;18.084;2023-09-19T01:54:55;100189.34;;;20.15;92.92
66689;BME280;53587;59.318;18.084;2023-09-19T01:57:27;100173.75;;;20.28;92.81
66689;BME280;53587;59.318;18.084;2023-09-19T01:59:57;100168.41;;;20.40;93.13
66689;BME280;53587;59.318;18.084;2023-09-19T02:02:24;100159.19;;;20.54;92.61
66689;BME280;53587;59.318;18.084;2023-09-19T02:04:50;100155.91;;;20.52;90.90
66689;BME280;53587;59.318;18.084;2023-09-19T02:07:16;100151.34;;;19.75;79.99
66689;BME280;53587;59.318;18.084;2023-09-19T02:09:41;100158.06;;;19.29;83.43
66689;BME280;53587;59.318;18.084;2023-09-19T02:12:08;100152.88;;;19.59;88.74
66689;BME280;53587;59.318;18.084;2023-09-19T02:14:33;100147.72;;;19.89;91.17
66689;BME280;53587;59.318;18.084;2023-09-19T02:17:01;100140.16;;;20.12;93.25
66689;BME280;53587;59.318;18.084;2023-09-19T02:19:26;100151.97;;;20.35;93.64
66689;BME280;53587;59.318;18.084;2023-09-19T02:21:51;100147.25;;;20.44;92.14
66689;BME280;53587;59.318;18.084;2023-09-19T02:24:17;100132.78;;;20.48;90.87
66689;BME280;53587;59.318;18.084;2023-09-19T02:26:44;100118.28;;;19.84;80.08
66689;BME280;53587;59.318;18.084;2023-09-19T02:29:09;100104.19;;;19.18;81.44
66689;BME280;53587;59.318;18.084;2023-09-19T02:31:35;100095.63;;;19.51;88.84
66689;BME280;53587;59.318;18.084;2023-09-19T02:34:01;100093.63;;;19.74;91.01
66689;BME280;53587;59.318;18.084;2023-09-19T02:36:26;100101.06;;;19.96;92.44
66689;BME280;53587;59.318;18.084;2023-09-19T02:38:51;100089.25;;;20.13;92.16
66689;BME280;53587;59.318;18.084;2023-09-19T02:41:16;100079.19;;;20.26;92.30
66689;BME280;53587;59.318;18.084;2023-09-19T02:43:41;100077.09;;;20.40;93.45
66689;BME280;53587;59.318;18.084;2023-09-19T02:46:08;100067.69;;;20.50;92.60
66689;BME280;53587;59.318;18.084;2023-09-19T02:48:33;100056.53;;;20.06;85.86
66689;BME280;53587;59.318;18.084;2023-09-19T02:50:59;100060.31;;;19.16;74.57
66689;BME280;53587;59.318;18.084;2023-09-19T02:53:25;100051.06;;;19.43;86.96
66689;BME280;53587;59.318;18.084;2023-09-19T02:55:50;100041.91;;;19.66;89.72
66689;BME280;53587;59.318;18.084;2023-09-19T02:58:19;100045.41;;;19.89;92.02
66689;BME280;53587;59.318;18.084;2023-09-19T03:00:44;100036.69;;;20.04;93.23
66689;BME280;53587;59.318;18.084;2023-09-19T03:03:12;100025.16;;;20.20;92.45
66689;BME280;53587;59.318;18.084;2023-09-19T03:05:38;100025.31;;;20.32;92.99
66689;BME280;53587;59.318;18.084;2023-09-19T03:08:03;100010.53;;;20.46;92.97
66689;BME280;53587;59.318;18.084;2023-09-19T03:10:31;99999.31;;;20.51;91.48
66689;BME280;53587;59.318;18.084;2023-09-19T03:12:57;99993.72;;;19.98;82.23
66689;BME280;53587;59.318;18.084;2023-09-19T03:15:24;99988.59;;;19.02;77.72
66689;BME280;53587;59.318;18.084;2023-09-19T03:17:50;99982.47;;;19.45;86.75
66689;BME280;53587;59.318;18.084;2023-09-19T03:20:17;99972.84;;;19.74;90.48
66689;BME280;53587;59.318;18.084;2023-09-19T03:22:43;99963.63;;;19.97;92.08
66689;BME280;53587;59.318;18.084;2023-09-19T03:25:08;99948.34;;;20.17;93.61
66689;BME280;53587;59.318;18.084;2023-09-19T03:27:35;99929.66;;;20.31;92.32
66689;BME280;53587;59.318;18.084;2023-09-19T03:30:00;99922.16;;;20.40;92.57
66689;BME280;53587;59.318;18.084;2023-09-19T03:32:25;99918.72;;;20.52;91.99
66689;BME280;53587;59.318;18.084;2023-09-19T03:34:50;99906.53;;;20.27;86.60
66689;BME280;53587;59.318;18.084;2023-09-19T03:37:15;99899.03;;;19.26;76.49
66689;BME280;53587;59.318;18.084;2023-09-19T03:39:41;99901.53;;;19.36;85.84
66689;BME280;53587;59.318;18.084;2023-09-19T03:42:06;99898.00;;;19.62;89.92
66689;BME280;53587;59.318;18.084;2023-09-19T03:44:32;99895.16;;;19.85;91.10
66689;BME280;53587;59.318;18.084;2023-09-19T03:46:58;99869.94;;;19.95;92.38
66689;BME280;53587;59.318;18.084;2023-09-19T03:49:23;99880.69;;;20.14;93.05
66689;BME280;53587;59.318;18.084;2023-09-19T03:51:49;99869.28;;;20.24;92.97
66689;BME280;53587;59.318;18.084;2023-09-19T03:54:14;99880.16;;;20.38;92.97
66689;BME280;53587;59.318;18.084;2023-09-19T03:56:39;99881.75;;;20.48;92.48
66689;BME280;53587;59.318;18.084;2023-09-19T03:59:04;99879.53;;;20.33;89.07
66689;BME280;53587;59.318;18.084;2023-09-19T04:01:30;99870.97;;;19.41;77.73
66689;BME280;53587;59.318;18.084;2023-09-19T04:03:57;99875.19;;;19.30;85.57
66689;BME280;53587;59.318;18.084;2023-09-19T04:06:22;99868.75;;;19.70;89.96
66689;BME280;53587;59.318;18.084;2023-09-19T04:08:47;99865.56;;;20.11;92.45
66689;BME280;53587;59.318;18.084;2023-09-19T04:11:13;99864.19;;;20.53;91.91
66689;BME280;53587;59.318;18.084;2023-09-19T04:13:39;99855.91;;;20.44;84.01
66689;BME280;53587;59.318;18.084;2023-09-19T04:16:04;99850.16;;;19.35;72.17
66689;BME280;53587;59.318;18.084;2023-09-19T04:18:29;99859.47;;;18.99;81.56
66689;BME280;53587;59.318;18.084;2023-09-19T04:20:58;99860.84;;;19.94;89.68
66689;BME280;53587;59.318;18.084;2023-09-19T04:23:23;99869.03;;;20.65;92.35
66689;BME280;53587;59.318;18.084;2023-09-19T04:25:49;99850.41;;;20.26;82.73
66689;BME280;53587;59.318;18.084;2023-09-19T04:28:15;99845.44;;;18.87;68.97
66689;BME280;53587;59.318;18.084;2023-09-19T04:30:40;99841.88;;;19.26;87.23
66689;BME280;53587;59.318;18.084;2023-09-19T04:33:06;99846.34;;;20.24;92.03
66689;BME280;53587;59.318;18.084;2023-09-19T04:35:31;99840.56;;;20.55;90.95
66689;BME280;53587;59.318;18.084;2023-09-19T04:37:57;99839.31;;;19.47;73.06
66689;BME280;53587;59.318;18.084;2023-09-19T04:40:22;99848.31;;;19.88;87.25
66689;BME280;53587;59.318;18.084;2023-09-19T04:42:53;99845.94;;;20.52;92.00
66689;BME280;53587;59.318;18.084;2023-09-19T04:45:21;99840.13;;;20.36;78.27
66689;BME280;53587;59.318;18.084;2023-09-19T04:47:46;99840.38;;;18.89;69.84
66689;BME280;53587;59.318;18.084;2023-09-19T04:50:11;99825.31;;;19.35;87.23
66689;BME280;53587;59.318;18.084;2023-09-19T04:52:41;99812.78;;;20.34;92.76
66689;BME280;53587;59.318;18.084;2023-09-19T04:55:08;99822.66;;;20.53;89.09
66689;BME280;53587;59.318;18.084;2023-09-19T04:57:33;99807.81;;;18.91;70.12
66689;BME280;53587;59.318;18.084;2023-09-19T04:59:59;99797.50;;;18.82;84.70
66689;BME280;53587;59.318;18.084;2023-09-19T05:02:24;99790.91;;;20.03;91.87
66689;BME280;53587;59.318;18.084;2023-09-19T05:04:49;99789.03;;;20.33;90.39
66689;BME280;53587;59.318;18.084;2023-09-19T05:07:14;99794.19;;;18.94;71.16
66689;BME280;53587;59.318;18.084;2023-09-19T05:09:39;99792.25;;;18.63;84.07
66689;BME280;53587;59.318;18.084;2023-09-19T05:12:07;99782.63;;;19.94;91.57
66689;BME280;53587;59.318;18.084;2023-09-19T05:14:32;99788.53;;;20.40;89.59
66689;BME280;53587;59.318;18.084;2023-09-19T05:16:57;99769.31;;;18.94;70.66
66689;BME280;53587;59.318;18.084;2023-09-19T05:19:22;99770.44;;;18.53;82.64
66689;BME280;53587;59.318;18.084;2023-09-19T05:21:48;99768.94;;;19.89;92.06
66689;BME280;53587;59.318;18.084;2023-09-19T05:24:14;99770.00;;;20.32;90.32
66689;BME280;53587;59.318;18.084;2023-09-19T05:26:39;99752.63;;;19.08;70.02
66689;BME280;53587;59.318;18.084;2023-09-19T05:29:05;99744.72;;;18.35;76.76
66689;BME280;53587;59.318;18.084;2023-09-19T05:31:32;99746.97;;;19.75;92.49
66689;BME280;53587;59.318;18.084;2023-09-19T05:33:58;99749.75;;;20.49;92.41
66689;BME280;53587;59.318;18.084;2023-09-19T05:36:26;99740.81;;;19.52;76.30
66689;BME280;53587;59.318;18.084;2023-09-19T05:38:51;99733.88;;;17.84;72.91
66689;BME280;53587;59.318;18.084;2023-09-19T05:41:18;99735.59;;;19.50;91.50
66689;BME280;53587;59.318;18.084;2023-09-19T05:43:43;99746.13;;;20.09;91.97
66689;BME280;53587;59.318;18.084;2023-09-19T05:46:09;99741.13;;;19.33;75.71
66689;BME280;53587;59.318;18.084;2023-09-19T05:48:34;99739.38;;;17.84;73.56
66689;BME280;53587;59.318;18.084;2023-09-19T05:50:59;99734.13;;;19.53;91.92
66689;BME280;53587;59.318;18.084;2023-09-19T05:53:26;99737.78;;;20.27;93.80
66689;BME280;53587;59.318;18.084;2023-09-19T05:55:51;99725.34;;;19.51;78.12
66689;BME280;53587;59.318;18.084;2023-09-19T05:58:18;99719.03;;;18.26;73.38
66689;BME280;53587;59.318;18.084;2023-09-19T06:00:45;99715.94;;;19.52;91.93
66689;BME280;53587;59.318;18.084;2023-09-19T06:03:12;99726.53;;;20.41;93.45
66689;BME280;53587;59.318;18.084;2023-09-19T06:05:39;99718.88;;;19.90;82.55
66689;BME280;53587;59.318;18.084;2023-09-19T06:08:06;99716.19;;;18.08;73.15
66689;BME280;53587;59.318;18.084;2023-09-19T06:10:33;99719.84;;;19.51;91.29
66689;BME280;53587;59.318;18.084;2023-09-19T06:12:59;99718.25;;;20.23;93.89
66689;BME280;53587;59.318;18.084;2023-09-19T06:15:24;99717.88;;;19.77;79.20
66689;BME280;53587;59.318;18.084;2023-09-19T06:17:51;99715.34;;;18.30;71.69
66689;BME280;53587;59.318;18.084;2023-09-19T06:20:16;99718.06;;;19.46;90.74
66689;BME280;53587;59.318;18.084;2023-09-19T06:22:42;99714.03;;;20.35;92.95
66689;BME280;53587;59.318;18.084;2023-09-19T06:25:09;99708.31;;;19.57;75.84
66689;BME280;53587;59.318;18.084;2023-09-19T06:27:36;99702.22;;;18.36;72.99
66689;BME280;53587;59.318;18.084;2023-09-19T06:30:02;99699.34;;;19.69;90.72
66689;BME280;53587;59.318;18.084;2023-09-19T06:32:27;99702.81;;;20.61;94.05
66689;BME280;53587;59.318;18.084;2023-09-19T06:34:53;99703.22;;;20.03;82.81
66689;BME280;53587;59.318;18.084;2023-09-19T06:37:20;99697.78;;;18.17;73.46
66689;BME280;53587;59.318;18.084;2023-09-19T06:39:46;99705.34;;;18.12;83.64
66689;BME280;53587;59.318;18.084;2023-09-19T06:42:11;99696.75;;;19.55;92.94
66689;BME280;53587;59.318;18.084;2023-09-19T06:44:37;99706.03;;;20.33;94.27
66689;BME280;53587;59.318;18.084;2023-09-19T06:47:02;99690.22;;;19.77;80.41
66689;BME280;53587;59.318;18.084;2023-09-19T06:49:27;99683.38;;;18.29;71.50
66689;BME280;53587;59.318;18.084;2023-09-19T06:51:54;99692.53;;;19.49;91.43
66689;BME280;53587;59.318;18.084;2023-09-19T06:54:20;99692.19;;;20.33;93.89
66689;BME280;53587;59.318;18.084;2023-09-19T06:56:45;99673.50;;;19.56;76.68
66689;BME280;53587;59.318;18.084;2023-09-19T06:59:10;99680.78;;;18.33;72.61
66689;BME280;53587;59.318;18.084;2023-09-19T07:01:39;99688.16;;;19.66;91.51
66689;BME280;53587;59.318;18.084;2023-09-19T07:04:05;99676.47;;;20.25;92.06
66689;BME280;53587;59.318;18.084;2023-09-19T07:06:30;99686.38;;;19.52;74.88
66689;BME280;53587;59.318;18.084;2023-09-19T07:08:55;99674.94;;;18.34;74.39
66689;BME280;53587;59.318;18.084;2023-09-19T07:11:20;99690.91;;;18.46;86.40
66689;BME280;53587;59.318;18.084;2023-09-19T07:13:46;99689.59;;;19.81;93.42
66689;BME280;53587;59.318;18.084;2023-09-19T07:16:12;99660.22;;;20.15;90.87
66689;BME280;53587;59.318;18.084;2023-09-19T07:18:52;99669.31;;;19.15;74.11
66689;BME280;53587;59.318;18.084;2023-09-19T07:21:17;99662.97;;;19.06;85.85
66689;BME280;53587;59.318;18.084;2023-09-19T07:23:42;99665.63;;;20.02;92.47
66689;BME280;53587;59.318;18.084;2023-09-19T07:26:07;99661.75;;;20.33;89.47
66689;BME280;53587;59.318;18.084;2023-09-19T07:28:33;99648.38;;;19.05;75.79
66689;BME280;53587;59.318;18.084;2023-09-19T07:31:01;99647.03;;;18.94;87.34
66689;BME280;53587;59.318;18.084;2023-09-19T07:33:28;99648.81;;;20.25;93.62
66689;BME280;53587;59.318;18.084;2023-09-19T07:35:53;99630.63;;;20.15;86.34
66689;BME280;53587;59.318;18.084;2023-09-19T07:38:18;99629.25;;;18.42;72.72
66689;BME280;53587;59.318;18.084;2023-09-19T07:40:43;99624.31;;;18.97;87.98
66689;BME280;53587;59.318;18.084;2023-09-19T07:43:09;99621.03;;;20.13;93.54
66689;BME280;53587;59.318;18.084;2023-09-19T07:45:34;99625.81;;;20.33;90.30
66689;BME280;53587;59.318;18.084;2023-09-19T07:48:01;99615.84;;;18.85;73.37
66689;BME280;53587;59.318;18.084;2023-09-19T07:50:29;99620.97;;;18.02;72.84
66689;BME280;53587;59.318;18.084;2023-09-19T07:52:54;99622.53;;;19.19;90.03
66689;BME280;53587;59.318;18.084;2023-09-19T07:55:21;99609.97;;;20.13;94.05
66689;BME280;53587;59.318;18.084;2023-09-19T07:57:49;99611.94;;;20.03;87.82
66689;BME280;53587;59.318;18.084;2023-09-19T08:00:15;99588.88;;;18.81;74.95
66689;BME280;53587;59.318;18.084;2023-09-19T08:02:40;99597.81;;;19.49;88.47
66689;BME280;53587;59.318;18.084;2023-09-19T08:05:06;99605.00;;;20.57;92.53
66689;BME280;53587;59.318;18.084;2023-09-19T08:07:38;99594.31;;;20.47;83.50
66689;BME280;53587;59.318;18.084;2023-09-19T08:10:04;99598.63;;;17.72;73.18
66689;BME280;53587;59.318;18.084;2023-09-19T08:12:29;99602.22;;;17.81;75.30
66689;BME280;53587;59.318;18.084;2023-09-19T08:14:55;99603.16;;;19.45;91.75
66689;BME280;53587;59.318;18.084;2023-09-19T08:17:20;99596.25;;;20.25;93.84
66689;BME280;53587;59.318;18.084;2023-09-19T08:19:47;99587.66;;;19.70;80.16
66689;BME280;53587;59.318;18.084;2023-09-19T08:22:14;99595.56;;;18.05;74.89
66689;BME280;53587;59.318;18.084;2023-09-19T08:24:42;99597.97;;;19.43;92.06
66689;BME280;53587;59.318;18.084;2023-09-19T08:27:08;99597.69;;;20.31;92.58
66689;BME280;53587;59.318;18.084;2023-09-19T08:29:35;99591.41;;;19.57;76.45
66689;BME280;53587;59.318;18.084;2023-09-19T08:32:00;99597.09;;;17.57;72.82
66689;BME280;53587;59.318;18.084;2023-09-19T08:34:25;99599.75;;;19.39;92.98
66689;BME280;53587;59.318;18.084;2023-09-19T08:36:51;99598.72;;;20.18;94.49
66689;BME280;53587;59.318;18.084;2023-09-19T08:39:17;99587.38;;;19.54;78.60
66689;BME280;53587;59.318;18.084;2023-09-19T08:41:44;99578.69;;;17.75;75.72
66689;BME280;53587;59.318;18.084;2023-09-19T08:44:09;99593.28;;;19.26;91.74
66689;BME280;53587;59.318;18.084;2023-09-19T08:46:35;99573.34;;;20.16;93.83
66689;BME280;53587;59.318;18.084;2023-09-19T08:49:04;99570.75;;;19.72;79.14
66689;BME280;53587;59.318;18.084;2023-09-19T08:51:33;99565.72;;;18.16;74.11
66689;BME280;53587;59.318;18.084;2023-09-19T08:56:30;99582.66;;;20.41;93.55
66689;BME280;53587;59.318;18.084;2023-09-19T08:58:59;99575.78;;;19.70;82.17
66689;BME280;53587;59.318;18.084;2023-09-19T09:01:28;99572.25;;;18.29;73.39
66689;BME280;53587;59.318;18.084;2023-09-19T09:03:54;99571.50;;;19.81;91.56
66689;BME280;53587;59.318;18.084;2023-09-19T09:06:20;99558.97;;;20.52;93.41
66689;BME280;53587;59.318;18.084;2023-09-19T09:08:46;99551.09;;;19.65;75.46
66689;BME280;53587;59.318;18.084;2023-09-19T09:11:12;99542.88;;;18.24;71.49
66689;BME280;53587;59.318;18.084;2023-09-19T09:13:37;99553.16;;;18.41;85.97
66689;BME280;53587;59.318;18.084;2023-09-19T09:16:04;99531.69;;;19.82;92.77
66689;BME280;53587;59.318;18.084;2023-09-19T09:18:29;99525.75;;;20.31;91.40
66689;BME280;53587;59.318;18.084;2023-09-19T09:20:57;99512.53;;;19.21;73.47
66689;BME280;53587;59.318;18.084;2023-09-19T09:23:22;99526.56;;;18.80;83.61
66689;BME280;53587;59.318;18.084;2023-09-19T09:25:52;99514.53;;;20.27;91.64
66689;BME280;53587;59.318;18.084;2023-09-19T09:28:24;99525.91;;;20.56;88.57
66689;BME280;53587;59.318;18.084;2023-09-19T09:30:50;99508.22;;;18.93;71.60
66689;BME280;53587;59.318;18.084;2023-09-19T09:33:16;99510.56;;;17.98;71.61
66689;BME280;53587;59.318;18.084;2023-09-19T09:35:52;99512.22;;;19.31;90.52
66689;BME280;53587;59.318;18.084;2023-09-19T09:38:21;99507.03;;;20.28;93.35
66689;BME280;53587;59.318;18.084;2023-09-19T09:40:47;99509.06;;;20.19;87.70
66689;BME280;53587;59.318;18.084;2023-09-19T09:43:27;99520.22;;;18.71;72.37
66689;BME280;53587;59.318;18.084;2023-09-19T09:46:16;99521.94;;;17.74;78.32
66689;BME280;53587;59.318;18.084;2023-09-19T09:48:47;99546.19;;;19.70;92.64
66689;BME280;53587;59.318;18.084;2023-09-19T09:51:33;99534.28;;;20.47;92.42
66689;BME280;53587;59.318;18.084;2023-09-19T09:54:14;99527.53;;;19.02;72.49
66689;BME280;53587;59.318;18.084;2023-09-19T09:56:59;99518.91;;;17.84;72.61
66689;BME280;53587;59.318;18.084;2023-09-19T10:02:15;99521.16;;;20.35;93.25
66689;BME280;53587;59.318;18.084;2023-09-19T10:04:47;99518.28;;;20.02;84.64
66689;BME280;53587;59.318;18.084;2023-09-19T10:07:33;99510.13;;;18.14;71.12
66689;BME280;53587;59.318;18.084;2023-09-19T10:10:02;99532.41;;;19.61;90.09
66689;BME280;53587;59.318;18.084;2023-09-19T10:12:46;99510.91;;;20.57;92.68
66689;BME280;53587;59.318;18.084;2023-09-19T10:15:16;99509.13;;;19.71;72.82
66689;BME280;53587;59.318;18.084;2023-09-19T10:17:42;99511.28;;;18.39;75.03
66689;BME280;53587;59.318;18.084;2023-09-19T10:20:14;99508.53;;;18.83;85.90
66689;BME280;53587;59.318;18.084;2023-09-19T10:23:03;99492.94;;;20.21;92.73
66689;BME280;53587;59.318;18.084;2023-09-19T10:25:34;99487.47;;;20.54;82.02
66689;BME280;53587;59.318;18.084;2023-09-19T10:28:02;99492.59;;;19.06;70.68
66689;BME280;53587;59.318;18.084;2023-09-19T10:30:31;99497.47;;;18.30;74.50
66689;BME280;53587;59.318;18.084;2023-09-19T10:33:03;99509.41;;;19.78;89.30
66689;BME280;53587;59.318;18.084;2023-09-19T10:35:29;99492.47;;;20.61;92.14
66689;BME280;53587;59.318;18.084;2023-09-19T10:37:55;99480.97;;;19.78;74.03
66689;BME280;53587;59.318;18.084;2023-09-19T10:40:21;99496.19;;;18.63;72.25
66689;BME280;53587;59.318;18.084;2023-09-19T10:42:55;99485.47;;;18.79;85.13
66689;BME280;53587;59.318;18.084;2023-09-19T10:45:22;99486.19;;;20.09;92.50
66689;BME280;53587;59.318;18.084;2023-09-19T10:47:51;99491.59;;;20.69;89.05
66689;BME280;53587;59.318;18.084;2023-09-19T10:50:20;99495.66;;;19.31;70.09
66689;BME280;53587;59.318;18.084;2023-09-19T10:52:47;99497.81;;;18.29;71.95
66689;BME280;53587;59.318;18.084;2023-09-19T10:55:17;99498.88;;;19.33;89.41
66689;BME280;53587;59.318;18.084;2023-09-19T10:57:44;99503.75;;;20.35;92.79
66689;BME280;53587;59.318;18.084;2023-09-19T11:00:09;99488.72;;;19.93;81.77
66689;BME280;53587;59.318;18.084;2023-09-19T11:05:36;99486.03;;;17.88;85.42
66689;BME280;53587;59.318;18.084;2023-09-19T11:08:08;99489.53;;;19.55;92.93
66689;BME280;53587;59.318;18.084;2023-09-19T11:10:45;99469.00;;;20.25;93.10
66689;BME280;53587;59.318;18.084;2023-09-19T11:26:43;99479.72;;;17.47;72.61
66689;BME280;53587;59.318;18.084;2023-09-19T11:29:24;99480.50;;;17.88;85.87
66689;BME280;53587;59.318;18.084;2023-09-19T11:31:50;99483.66;;;19.57;93.45
66689;BME280;53587;59.318;18.084;2023-09-19T11:37:01;99468.09;;;18.78;72.45
66689;BME280;53587;59.318;18.084;2023-09-19T11:39:29;99463.59;;;17.63;71.22
66689;BME280;53587;59.318;18.084;2023-09-19T11:41:54;99468.13;;;18.61;89.82
66689;BME280;53587;59.318;18.084;2023-09-19T11:44:31;99483.03;;;19.90;93.13
66689;BME280;53587;59.318;18.084;2023-09-19T11:46:56;99465.75;;;20.23;89.59
66689;BME280;53587;59.318;18.084;2023-09-19T11:49:28;99474.22;;;17.96;70.67
66689;BME280;53587;59.318;18.084;2023-09-19T11:51:55;99458.75;;;17.29;71.59
66689;BME280;53587;59.318;18.084;2023-09-19T11:54:20;99464.22;;;18.97;90.29
66689;BME280;53587;59.318;18.084;2023-09-19T11:56:54;99468.66;;;20.05;93.73
66689;BME280;53587;59.318;18.084;2023-09-19T11:59:26;99464.03;;;19.88;85.76
66689;BME280;53587;59.318;18.084;2023-09-19T12:01:59;99466.03;;;17.65;73.62
66689;BME280;53587;59.318;18.084;2023-09-19T12:04:41;99467.97;;;17.24;77.00
66689;BME280;53587;59.318;18.084;2023-09-19T12:07:11;99471.09;;;19.29;92.92
66689;BME280;53587;59.318;18.084;2023-09-19T12:09:40;99461.84;;;20.24;93.96
66689;BME280;53587;59.318;18.084;2023-09-19T12:12:09;99466.03;;;19.40;76.82
66689;BME280;53587;59.318;18.084;2023-09-19T12:14:34;99459.53;;;17.61;72.66
66689;BME280;53587;59.318;18.084;2023-09-19T12:17:04;99470.22;;;18.20;87.69
66689;BME280;53587;59.318;18.084;2023-09-19T12:19:30;99468.66;;;19.67;92.81
66689;BME280;53587;59.318;18.084;2023-09-19T12:21:59;99475.81;;;20.27;92.34
66689;BME280;53587;59.318;18.084;2023-09-19T12:24:28;99465.84;;;18.98;72.36
66689;BME280;53587;59.318;18.084;2023-09-19T12:26:56;99464.50;;;17.50;72.79
66689;BME280;53587;59.318;18.084;2023-09-19T12:29:28;99475.91;;;18.41;90.03
66689;BME280;53587;59.318;18.084;2023-09-19T12:31:55;99474.19;;;19.67;93.78
66689;BME280;53587;59.318;18.084;2023-09-19T12:34:26;99466.81;;;20.09;91.40
66689;BME280;53587;59.318;18.084;2023-09-19T12:37:07;99469.28;;;18.42;72.39
66689;BME280;53587;59.318;18.084;2023-09-19T12:39:52;99466.63;;;18.81;88.43
66689;BME280;53587;59.318;18.084;2023-09-19T12:42:23;99466.19;;;20.04;93.77
66689;BME280;53587;59.318;18.084;2023-09-19T12:44:50;99473.97;;;20.10;86.85
66689;BME280;53587;59.318;18.084;2023-09-19T12:47:25;99447.22;;;17.67;71.92
66689;BME280;53587;59.318;18.084;2023-09-19T12:52:35;99465.63;;;19.12;91.51
66689;BME280;53587;59.318;18.084;2023-09-19T12:55:01;99467.38;;;20.24;94.27
66689;BME280;53587;59.318;18.084;2023-09-19T12:57:27;99469.19;;;19.60;81.90
66689;BME280;53587;59.318;18.084;2023-09-19T12:59:53;99462.53;;;17.91;71.29
66689;BME280;53587;59.318;18.084;2023-09-19T13:02:18;99470.25;;;17.71;82.04
66689;BME280;53587;59.318;18.084;2023-09-19T13:04:55;99471.69;;;19.44;92.22
66689;BME280;53587;59.318;18.084;2023-09-19T13:07:40;99480.06;;;20.25;92.91
66689;BME280;53587;59.318;18.084;2023-09-19T13:10:12;99474.94;;;18.72;74.70
66689;BME280;53587;59.318;18.084;2023-09-19T13:12:41;99466.63;;;17.62;71.62
66689;BME280;53587;59.318;18.084;2023-09-19T13:15:11;99481.25;;;18.55;88.50
66689;BME280;53587;59.318;18.084;2023-09-19T13:17:48;99495.09;;;19.85;93.27
66689;BME280;53587;59.318;18.084;2023-09-19T13:20:23;99479.03;;;20.08;88.99
66689;BME280;53587;59.318;18.084;2023-09-19T13:22:52;99483.81;;;17.99;72.58
66689;BME280;53587;59.318;18.084;2023-09-19T13:25:19;99489.69;;;17.34;70.88
66689;BME280;53587;59.318;18.084;2023-09-19T13:27:48;99492.44;;;18.94;90.03
66689;BME280;53587;59.318;18.084;2023-09-19T13:30:27;99483.88;;;19.90;93.36
66689;BME280;53587;59.318;18.084;2023-09-19T13:33:09;99495.13;;;19.76;83.97